Time;durP1;ratioP1;P1;durP2;ratioP2;P2;SDS_P1;SDS_P2;PMS_P1;PMS_P2;Temp;Humidity;BMP_temperature;BMP_pressure;BME280_temperature;BME280_humidity;BME280_pressure;Samples;Min_cycle;Max_cycle;Signal;HPM_P1;HPM_P2
2023/01/04 00:00:18;;;;;;;3.30;1.40;;;;;;;9.01;74.98;101924.28;5031795;28;20091;-65
2023/01/04 00:02:44;;;;;;;7.53;1.48;;;;;;;9.03;75.53;101933.78;5033781;28;20052;-66
2023/01/04 00:05:09;;;;;;;7.40;1.35;;;;;;;9.09;75.08;101925.28;5037360;28;20028;-61
2023/01/04 00:07:35;;;;;;;5.93;1.27;;;;;;;9.20;73.85;101910.81;5036075;28;20098;-61
2023/01/04 00:10:00;;;;;;;6.28;1.60;;;;;;;9.22;74.92;101916.03;5036011;28;20021;-62
2023/01/04 00:12:25;;;;;;;6.50;1.30;;;;;;;9.23;74.42;101910.03;5037157;28;20052;-62
2023/01/04 00:14:51;;;;;;;8.20;2.03;;;;;;;9.22;74.48;101909.16;5036201;28;20033;-62
2023/01/04 00:17:16;;;;;;;5.28;1.55;;;;;;;9.23;74.44;101905.72;5039154;28;20048;-61
2023/01/04 00:19:42;;;;;;;5.63;1.10;;;;;;;9.23;74.45;101900.53;5031257;28;20061;-61
2023/01/04 00:22:07;;;;;;;1.33;1.00;;;;;;;9.23;75.06;101889.38;5036948;28;20076;-62
2023/01/04 00:24:32;;;;;;;7.13;1.35;;;;;;;9.24;74.45;101894.56;5038759;28;20110;-61
2023/01/04 00:26:58;;;;;;;4.88;1.50;;;;;;;9.27;74.66;101886.00;5030352;28;20763;-61
2023/01/04 00:29:23;;;;;;;4.55;1.38;;;;;;;9.28;74.09;101883.44;5036690;28;20033;-61
2023/01/04 00:31:49;;;;;;;4.85;1.70;;;;;;;9.27;74.40;101889.44;5038502;28;20025;-61
2023/01/04 00:34:16;;;;;;;7.03;1.38;;;;;;;9.31;74.26;101880.91;5040631;28;20108;-61
2023/01/04 00:36:41;;;;;;;7.55;1.55;;;;;;;9.34;74.19;101885.25;5032568;28;20057;-61
2023/01/04 00:39:11;;;;;;;4.05;1.40;;;;;;;9.29;74.98;101884.31;5053054;28;20412;-62
2023/01/04 00:41:44;;;;;;;4.50;1.30;;;;;;;9.30;74.75;101886.03;5036887;28;20044;-61
2023/01/04 00:44:11;;;;;;;5.80;1.45;;;;;;;9.32;74.79;101884.34;5050831;28;20082;-61
2023/01/04 00:46:37;;;;;;;5.07;1.50;;;;;;;9.31;75.02;101870.59;5057386;28;20036;-62
2023/01/04 00:49:04;;;;;;;5.38;1.40;;;;;;;9.32;74.57;101866.28;5035859;28;20489;-61
2023/01/04 00:51:30;;;;;;;6.00;1.27;;;;;;;9.31;75.20;101864.56;5034077;28;20037;-61
2023/01/04 00:53:58;;;;;;;4.70;1.17;;;;;;;9.35;74.40;101854.28;5036086;28;20029;-61
2023/01/04 00:56:24;;;;;;;5.50;1.35;;;;;;;9.36;74.21;101852.59;5036407;28;20044;-61
2023/01/04 00:58:53;;;;;;;4.63;1.67;;;;;;;9.37;74.53;101841.44;5042192;28;20040;-61
2023/01/04 01:01:19;;;;;;;4.68;1.50;;;;;;;9.41;74.43;101827.69;5052774;28;20125;-61
2023/01/04 01:03:44;;;;;;;3.33;1.08;;;;;;;9.47;74.55;101827.78;5029252;28;20029;-61
2023/01/04 01:06:11;;;;;;;9.30;1.55;;;;;;;9.44;74.26;101831.19;5035836;28;20471;-62
2023/01/04 01:08:36;;;;;;;9.90;1.52;;;;;;;9.46;74.73;101826.94;5031445;28;20040;-61
2023/01/04 01:11:08;;;;;;;4.95;1.80;;;;;;;9.50;73.66;101820.06;5038390;28;20040;-61
2023/01/04 01:13:34;;;;;;;4.85;1.60;;;;;;;9.52;74.23;101815.81;5037690;28;20049;-61
2023/01/04 01:16:05;;;;;;;7.75;2.13;;;;;;;9.51;73.99;101819.25;5039149;28;20604;-62
2023/01/04 01:18:32;;;;;;;5.35;1.40;;;;;;;9.52;75.34;101818.41;5057108;28;20036;-61
2023/01/04 01:20:57;;;;;;;6.22;1.70;;;;;;;9.44;76.46;101822.56;5043619;28;20053;-61
2023/01/04 01:23:22;;;;;;;8.07;1.40;;;;;;;9.36;77.32;101824.19;5035655;28;20037;-61
2023/01/04 01:25:48;;;;;;;10.85;2.03;;;;;;;9.26;78.00;101823.19;5035832;28;20037;-61
2023/01/04 01:28:13;;;;;;;12.07;1.50;;;;;;;9.11;80.08;101817.81;5035097;28;20037;-65
2023/01/04 01:30:42;;;;;;;4.95;1.45;;;;;;;9.03;80.86;101811.69;5029992;28;20025;-66
2023/01/04 01:33:08;;;;;;;5.93;1.52;;;;;;;8.96;82.25;101808.16;5031966;28;20124;-65
2023/01/04 01:35:34;;;;;;;8.07;1.42;;;;;;;8.84;82.93;101796.81;5034205;28;20036;-65
2023/01/04 01:38:00;;;;;;;6.55;1.42;;;;;;;8.77;83.65;101795.84;5033451;28;20051;-65
2023/01/04 01:40:26;;;;;;;6.53;1.67;;;;;;;8.70;84.92;101796.59;5032670;28;20683;-65
2023/01/04 01:42:51;;;;;;;4.20;1.30;;;;;;;8.69;84.94;101787.13;5057772;28;20688;-65
2023/01/04 01:45:26;;;;;;;4.28;1.73;;;;;;;8.73;85.36;101788.91;5021893;28;20052;-66
2023/01/04 01:47:58;;;;;;;6.47;1.73;;;;;;;8.67;85.13;101793.09;5050253;28;20045;-65
2023/01/04 01:50:30;;;;;;;5.25;1.65;;;;;;;8.66;85.96;101789.66;5048024;28;20098;-65
2023/01/04 01:52:59;;;;;;;6.35;1.70;;;;;;;8.64;86.61;101786.19;5038086;28;20086;-65
2023/01/04 01:55:24;;;;;;;6.25;1.67;;;;;;;8.65;87.43;101781.91;5038605;28;20060;-65
2023/01/04 01:57:53;;;;;;;5.30;1.50;;;;;;;8.61;88.44;101786.13;5032020;28;20111;-64
2023/01/04 02:00:18;;;;;;;5.82;1.50;;;;;;;8.61;88.36;101773.25;5035980;28;20039;-65
2023/01/04 02:02:55;;;;;;;7.63;1.90;;;;;;;8.58;88.75;101768.03;5032865;28;20894;-65
2023/01/04 02:05:21;;;;;;;9.35;1.85;;;;;;;8.60;88.06;101770.66;5033365;28;20409;-65
2023/01/04 02:07:48;;;;;;;3.85;1.92;;;;;;;8.63;87.95;101765.56;5027040;28;20037;-65
2023/01/04 02:10:14;;;;;;;4.28;1.45;;;;;;;8.64;88.66;101752.69;5027752;28;20032;-61
2023/01/04 02:12:41;;;;;;;9.93;1.83;;;;;;;8.61;89.00;101757.78;5038942;28;20056;-61
2023/01/04 02:15:07;;;;;;;5.95;1.90;;;;;;;8.60;89.18;101758.66;5038915;28;20033;-61
2023/01/04 02:17:41;;;;;;;5.18;1.60;;;;;;;8.63;89.00;101756.13;5036200;28;20536;-61
2023/01/04 02:20:15;;;;;;;7.93;1.50;;;;;;;8.70;87.63;101750.19;5030968;28;20037;-61
2023/01/04 02:22:53;;;;;;;7.53;1.60;;;;;;;8.64;88.36;101747.53;5037525;28;20041;-61
2023/01/04 02:25:52;;;;;;;5.10;1.20;;;;;;;8.69;87.92;101738.16;5031574;28;20124;-61
2023/01/04 02:28:17;;;;;;;6.72;1.60;;;;;;;8.75;87.02;101733.09;5033315;28;20028;-61
2023/01/04 02:30:42;;;;;;;9.60;1.67;;;;;;;8.76;86.81;101734.81;5035260;28;20021;-61
2023/01/04 02:33:35;;;;;;;10.02;1.73;;;;;;;8.77;86.81;101726.25;5034004;28;20037;-61
2023/01/04 02:36:22;;;;;;;3.97;1.38;;;;;;;8.86;85.58;101723.81;5051084;28;20036;-61
2023/01/04 02:39:25;;;;;;;8.65;1.30;;;;;;;8.93;85.29;101711.88;5053897;28;20063;-61
2023/01/04 02:42:05;;;;;;;5.95;1.42;;;;;;;9.01;84.69;101710.25;5040056;28;20131;-61
2023/01/04 02:44:53;;;;;;;5.82;1.42;;;;;;;8.93;85.83;101692.09;5042970;28;20586;-61
2023/01/04 02:50:32;;;;;;;4.95;1.30;;;;;;;8.94;86.51;101680.94;5029234;28;20099;-61
2023/01/04 02:53:07;;;;;;;2.92;0.90;;;;;;;8.92;85.57;101677.47;5036984;28;20102;-61
2023/01/04 02:55:53;;;;;;;6.38;1.30;;;;;;;8.93;85.41;101671.44;5035136;28;20067;-60
2023/01/04 02:58:40;;;;;;;4.88;1.05;;;;;;;8.95;85.42;101672.38;5029187;28;20024;-61
2023/01/04 03:07:50;;;;;;;5.15;1.17;;;;;;;9.03;84.51;101655.25;5035561;28;20122;-61
2023/01/04 03:10:31;;;;;;;4.45;0.93;;;;;;;9.03;85.74;101663.00;5034327;28;20075;-61
2023/01/04 03:13:06;;;;;;;5.88;1.30;;;;;;;9.08;83.98;101653.59;5040309;28;20021;-61
2023/01/04 03:15:35;;;;;;;2.40;1.00;;;;;;;9.06;84.86;101652.72;5041464;28;20041;-61
2023/01/04 03:18:12;;;;;;;4.63;1.20;;;;;;;9.07;85.44;101658.75;5041399;28;20099;-61
2023/01/04 03:20:38;;;;;;;7.72;1.45;;;;;;;9.15;84.50;101636.47;5038081;28;20056;-61
2023/01/04 03:37:39;;;;;;;1.75;0.70;;;;;;;9.47;83.63;101641.97;5032811;28;20071;-61
2023/01/04 03:49:16;;;;;;;4.55;0.73;;;;;;;9.67;81.87;101615.53;5036057;28;20118;-65
2023/01/04 03:51:45;;;;;;;3.15;0.82;;;;;;;9.66;82.07;101606.09;5035563;28;20029;-64
2023/01/04 03:54:21;;;;;;;5.93;0.90;;;;;;;9.64;81.80;101594.84;5054774;28;20035;-64
2023/01/04 03:56:48;;;;;;;2.65;0.70;;;;;;;9.64;81.89;101597.44;5054366;28;20036;-64
2023/01/04 03:59:13;;;;;;;3.22;0.63;;;;;;;9.70;81.33;101599.25;5056852;28;20033;-64
2023/01/04 04:01:41;;;;;;;1.55;0.60;;;;;;;9.72;81.83;101599.22;5057397;28;20035;-64
2023/01/04 04:09:34;;;;;;;0.57;0.45;;;;;;;9.74;81.15;101600.97;5052845;28;20090;-64
2023/01/04 04:12:00;;;;;;;1.80;0.40;;;;;;;9.75;81.23;101596.69;5054276;28;20041;-65
2023/01/04 04:14:25;;;;;;;1.17;0.93;;;;;;;9.77;80.68;101587.22;5017618;28;20109;-65
2023/01/04 04:16:51;;;;;;;0.57;0.40;;;;;;;9.81;80.72;101587.28;5051701;28;20059;-65
2023/01/04 04:19:16;;;;;;;0.68;0.52;;;;;;;9.77;80.98;101588.09;5052752;28;20879;-65
2023/01/04 04:21:41;;;;;;;0.88;0.32;;;;;;;9.72;82.79;101600.09;5054893;28;20036;-65
2023/01/04 04:24:14;;;;;;;1.35;0.50;;;;;;;9.73;82.59;101603.56;5055447;28;20650;-65
2023/01/04 04:26:40;;;;;;;2.22;0.50;;;;;;;9.70;82.37;101588.03;5056381;28;20675;-65
2023/01/04 04:29:05;;;;;;;0.70;0.30;;;;;;;9.59;84.83;101586.22;5055220;28;20147;-65
2023/01/04 04:31:31;;;;;;;2.65;0.50;;;;;;;9.61;84.23;101565.59;5055915;28;20106;-65
2023/01/04 04:33:56;;;;;;;1.15;0.40;;;;;;;9.55;85.35;101561.22;5039903;28;20032;-65
2023/01/04 04:36:21;;;;;;;5.47;0.73;;;;;;;9.50;85.62;101565.47;5059829;28;20139;-65
2023/01/04 04:38:47;;;;;;;0.47;0.40;;;;;;;9.44;86.81;101562.81;5057316;28;20072;-65
2023/01/04 04:43:57;;;;;;;0.70;0.40;;;;;;;9.42;86.66;101548.19;5059945;28;20730;-65
2023/01/04 04:46:23;;;;;;;2.35;0.52;;;;;;;9.42;86.40;101553.34;5059498;28;20036;-65
2023/01/04 04:48:49;;;;;;;3.00;0.60;;;;;;;9.40;86.59;101549.91;5057288;28;20670;-65
2023/01/04 04:51:14;;;;;;;0.88;0.40;;;;;;;9.47;85.95;101551.66;5053830;28;20082;-65
2023/01/04 04:53:40;;;;;;;0.30;0.30;;;;;;;9.49;86.26;101556.00;5038201;28;20802;-65
2023/01/04 04:56:06;;;;;;;1.50;0.57;;;;;;;9.52;85.74;101550.00;5057161;28;20127;-64
2023/01/04 04:58:32;;;;;;;1.23;0.30;;;;;;;9.54;85.85;101543.13;5058159;28;20036;-64
2023/01/04 05:00:57;;;;;;;0.43;0.30;;;;;;;9.54;85.89;101533.69;5052401;28;20036;-64
2023/01/04 05:03:23;;;;;;;0.30;0.30;;;;;;;9.62;84.21;101536.34;5054508;28;20745;-64
2023/01/04 05:05:48;;;;;;;0.90;0.30;;;;;;;9.67;83.76;101534.69;5052975;28;20102;-65
2023/01/04 05:08:14;;;;;;;0.93;0.60;;;;;;;9.61;85.04;101532.06;5054713;28;20040;-65
2023/01/04 05:10:39;;;;;;;0.38;0.30;;;;;;;9.63;84.17;101535.50;5053586;28;20135;-65
2023/01/04 05:13:09;;;;;;;0.90;0.40;;;;;;;9.64;84.26;101543.22;5059142;28;20028;-65
2023/01/04 05:15:38;;;;;;;0.93;0.30;;;;;;;9.73;82.95;101542.47;5040343;28;20060;-64
2023/01/04 05:18:05;;;;;;;0.30;0.30;;;;;;;9.74;83.81;101544.19;5056341;28;20536;-65
2023/01/04 05:20:31;;;;;;;1.25;0.40;;;;;;;9.73;84.20;101542.47;5051973;28;20044;-64
2023/01/04 05:22:56;;;;;;;0.30;0.30;;;;;;;9.74;84.17;101540.72;5047438;28;20041;-65
2023/01/04 05:25:22;;;;;;;0.90;0.30;;;;;;;9.76;83.70;101539.03;5052581;28;20115;-65
2023/01/04 05:27:47;;;;;;;0.35;0.30;;;;;;;9.81;83.35;101537.34;5034717;28;20044;-64
2023/01/04 05:32:58;;;;;;;;;;;;;;;9.92;82.45;101509.88;5054141;28;20067;-64
2023/01/04 05:35:24;;;;;;;2.13;0.40;;;;;;;9.90;82.40;101503.84;5055119;28;20557;-64
2023/01/04 05:37:49;;;;;;;0.50;0.40;;;;;;;9.85;82.34;101503.78;5049110;28;20040;-65
2023/01/04 05:40:15;;;;;;;0.30;0.22;;;;;;;9.81;82.90;101508.94;5040025;28;20126;-64
2023/01/04 05:42:40;;;;;;;1.40;0.50;;;;;;;9.76;83.38;101502.91;5059086;28;20556;-61
2023/01/04 05:45:06;;;;;;;0.38;0.38;;;;;;;9.70;83.04;101502.84;5058633;28;20600;-61
2023/01/04 05:47:32;;;;;;;1.95;0.35;;;;;;;9.63;83.77;101497.66;5057763;28;20064;-61
2023/01/04 05:49:57;;;;;;;0.55;0.28;;;;;;;9.64;83.81;101516.59;5055115;28;20459;-61
2023/01/04 05:52:23;;;;;;;0.30;0.30;;;;;;;9.64;83.35;101508.84;5055100;28;20871;-61
2023/01/04 05:54:48;;;;;;;0.90;0.50;;;;;;;9.64;83.39;101507.09;5054604;28;20170;-60
2023/01/04 05:57:14;;;;;;;0.57;0.40;;;;;;;9.64;83.61;101511.41;5050865;28;20044;-60
2023/01/04 05:59:39;;;;;;;1.13;0.35;;;;;;;9.64;83.52;101503.69;5054769;28;20052;-60
2023/01/04 06:02:05;;;;;;;0.30;0.30;;;;;;;9.67;83.12;101507.13;5057652;28;20040;-61
2023/01/04 06:04:31;;;;;;;0.30;0.30;;;;;;;9.69;83.25;101507.16;5056147;28;21927;-61
2023/01/04 06:06:56;;;;;;;0.70;0.40;;;;;;;9.72;83.31;101504.59;5055315;28;20090;-61
2023/01/04 06:09:23;;;;;;;0.30;0.30;;;;;;;9.73;83.17;101506.31;5049438;28;20079;-61
2023/01/04 06:11:49;;;;;;;0.30;0.28;;;;;;;9.76;83.57;101505.47;5055274;28;20523;-61
2023/01/04 06:14:15;;;;;;;0.30;0.25;;;;;;;9.85;83.70;101508.97;5056088;28;20036;-61
2023/01/04 06:16:40;;;;;;;0.68;0.30;;;;;;;9.91;82.94;101498.66;5057107;28;20412;-60
2023/01/04 06:19:05;;;;;;;0.47;0.30;;;;;;;10.00;82.80;101496.13;5052542;28;20029;-60
2023/01/04 06:21:31;;;;;;;0.30;0.30;;;;;;;10.03;82.07;101485.81;5050690;28;20034;-61
2023/01/04 06:23:56;;;;;;;0.30;0.30;;;;;;;10.07;82.32;101486.72;5054942;28;20040;-61
2023/01/04 06:26:21;;;;;;;0.32;0.30;;;;;;;10.12;81.62;101475.53;5055095;28;20083;-61
2023/01/04 06:28:47;;;;;;;0.63;0.30;;;;;;;10.16;82.21;101468.69;5037851;28;20053;-61
2023/01/04 06:31:12;;;;;;;0.20;0.20;;;;;;;10.22;81.83;101471.28;5057469;28;20500;-61
2023/01/04 06:33:38;;;;;;;0.35;0.30;;;;;;;10.20;81.81;101479.06;5055288;28;20036;-62
2023/01/04 06:36:05;;;;;;;0.52;0.38;;;;;;;10.23;81.84;101476.47;5051229;28;20108;-61
2023/01/04 06:38:32;;;;;;;0.47;0.30;;;;;;;10.25;81.40;101476.47;5056708;28;20139;-61
2023/01/04 06:40:57;;;;;;;0.90;0.20;;;;;;;10.26;81.35;101464.41;5047602;28;20049;-61
2023/01/04 06:43:22;;;;;;;0.20;0.20;;;;;;;10.25;82.02;101466.13;5054593;28;20031;-61
2023/01/04 06:45:48;;;;;;;0.77;0.40;;;;;;;10.22;81.76;101477.31;5054425;28;20476;-62
2023/01/04 06:48:13;;;;;;;0.52;0.30;;;;;;;10.27;81.19;101464.41;5054595;28;20040;-61
2023/01/04 06:50:39;;;;;;;0.45;0.32;;;;;;;10.29;81.83;101457.56;5053372;28;20039;-61
2023/01/04 06:53:04;;;;;;;0.32;0.30;;;;;;;10.31;81.69;101453.25;5054370;28;20501;-61
2023/01/04 06:55:30;;;;;;;1.30;0.50;;;;;;;10.31;81.32;101458.41;5050566;28;20110;-61
2023/01/04 06:57:56;;;;;;;0.40;0.40;;;;;;;10.29;81.83;101456.69;5050724;28;20169;-61
2023/01/04 07:00:21;;;;;;;0.35;0.30;;;;;;;10.27;82.08;101454.06;5053521;28;20047;-61
2023/01/04 07:02:47;;;;;;;0.35;0.25;;;;;;;10.20;82.24;101447.19;5055054;28;20142;-61
2023/01/04 07:05:12;;;;;;;2.05;0.40;;;;;;;10.18;82.33;101446.28;5055597;28;20123;-61
2023/01/04 07:07:37;;;;;;;0.95;0.40;;;;;;;10.21;82.79;101436.84;5054704;28;20552;-60
2023/01/04 07:10:03;;;;;;;0.20;0.20;;;;;;;10.19;82.83;101440.28;5037458;28;20028;-60
2023/01/04 07:12:29;;;;;;;0.30;0.30;;;;;;;10.24;82.88;101452.34;5054709;28;20063;-61
2023/01/04 07:14:55;;;;;;;0.50;0.32;;;;;;;10.26;82.81;101443.75;5051484;28;20545;-61
2023/01/04 07:17:20;;;;;;;0.20;0.20;;;;;;;10.29;82.52;101443.75;5052008;28;20123;-61
2023/01/04 07:19:45;;;;;;;0.52;0.30;;;;;;;10.27;82.87;101454.06;5054366;28;20062;-60
2023/01/04 07:22:11;;;;;;;0.98;0.30;;;;;;;10.25;82.86;101450.63;5041446;28;20043;-60
2023/01/04 07:24:36;;;;;;;0.52;0.50;;;;;;;10.29;82.11;101452.38;5057106;28;20118;-61
2023/01/04 07:27:02;;;;;;;0.65;0.47;;;;;;;10.24;82.46;101451.47;5055926;28;20097;-61
2023/01/04 07:29:27;;;;;;;0.40;0.30;;;;;;;10.28;82.66;101453.22;5055473;28;20047;-61
2023/01/04 07:31:53;;;;;;;0.28;0.28;;;;;;;10.31;82.27;101453.25;5057642;28;20043;-61
2023/01/04 07:34:21;;;;;;;0.43;0.30;;;;;;;10.36;82.04;101450.66;5056580;28;20036;-61
2023/01/04 07:36:47;;;;;;;0.32;0.30;;;;;;;10.43;81.82;101434.31;5048881;28;20029;-60
2023/01/04 07:39:13;;;;;;;0.50;0.30;;;;;;;10.42;82.24;101437.75;5057327;28;20046;-60
2023/01/04 07:41:40;;;;;;;0.38;0.30;;;;;;;10.46;82.11;101442.09;5056496;28;20501;-60
2023/01/04 07:44:06;;;;;;;1.10;0.40;;;;;;;10.51;82.08;101437.78;5051839;28;20045;-60
2023/01/04 07:46:33;;;;;;;0.45;0.30;;;;;;;10.56;82.01;101444.72;5051213;28;20610;-60
2023/01/04 07:48:59;;;;;;;0.30;0.30;;;;;;;10.59;81.80;101442.16;5054555;28;20121;-61
2023/01/04 07:51:24;;;;;;;4.35;0.38;;;;;;;10.61;81.90;101443.00;5055792;28;20037;-60
2023/01/04 07:53:50;;;;;;;0.20;0.20;;;;;;;10.61;81.91;101439.53;5052875;28;20070;-60
2023/01/04 07:56:16;;;;;;;0.20;0.20;;;;;;;10.74;81.60;101434.38;5054851;28;20086;-60
2023/01/04 07:58:41;;;;;;;1.35;0.20;;;;;;;10.81;80.73;101437.84;5058109;28;20041;-60
2023/01/04 08:01:13;;;;;;;0.65;0.30;;;;;;;10.83;80.83;101433.56;5057875;28;20034;-61
2023/01/04 08:03:39;;;;;;;0.20;0.20;;;;;;;10.89;80.98;101430.13;5057417;28;20032;-60
2023/01/04 08:06:07;;;;;;;0.30;0.30;;;;;;;10.89;81.18;101427.53;5043120;28;20035;-61
2023/01/04 08:08:33;;;;;;;0.30;0.25;;;;;;;10.90;80.57;101431.81;5053078;28;20039;-61
2023/01/04 08:11:06;;;;;;;1.98;0.30;;;;;;;10.91;81.32;101430.97;5055233;28;20044;-61
2023/01/04 08:13:32;;;;;;;0.30;0.30;;;;;;;10.92;80.72;101437.88;5057852;28;20063;-61
2023/01/04 08:15:57;;;;;;;0.50;0.47;;;;;;;10.92;81.13;101446.47;5052253;28;20384;-61
2023/01/04 08:18:23;;;;;;;0.30;0.30;;;;;;;10.90;80.65;101437.00;5052330;28;20094;-61
2023/01/04 08:20:49;;;;;;;0.50;0.32;;;;;;;10.97;80.53;101431.84;5062166;28;20041;-61
2023/01/04 08:23:14;;;;;;;0.30;0.30;;;;;;;10.94;80.46;101434.44;5059870;28;20557;-61
2023/01/04 08:25:40;;;;;;;0.38;0.38;;;;;;;10.94;81.27;101452.53;5056051;28;20040;-61
2023/01/04 08:28:05;;;;;;;0.60;0.32;;;;;;;10.93;81.13;101447.34;5057068;28;20056;-61
2023/01/04 08:30:31;;;;;;;2.05;0.30;;;;;;;10.95;81.38;101451.66;5056146;28;20049;-61
2023/01/04 08:32:56;;;;;;;0.25;0.25;;;;;;;10.97;80.95;101449.97;5058203;28;20036;-62
2023/01/04 08:35:22;;;;;;;0.60;0.47;;;;;;;10.99;81.41;101437.88;5056573;28;20036;-62
2023/01/04 08:37:48;;;;;;;0.75;0.35;;;;;;;11.05;81.04;101440.47;5056441;28;20151;-61
2023/01/04 08:40:13;;;;;;;0.45;0.25;;;;;;;11.07;81.04;101446.50;5058383;28;20064;-61
2023/01/04 08:42:38;;;;;;;1.13;0.50;;;;;;;11.11;80.85;101442.19;5060794;28;20090;-61
2023/01/04 08:45:04;;;;;;;0.30;0.30;;;;;;;11.17;80.39;101450.81;5056136;28;20039;-62
2023/01/04 08:47:31;;;;;;;0.60;0.30;;;;;;;11.25;80.07;101445.63;5056127;28;20033;-61
2023/01/04 08:49:57;;;;;;;0.63;0.30;;;;;;;11.30;80.20;101438.75;5052511;28;20571;-61
2023/01/04 08:52:23;;;;;;;0.30;0.30;;;;;;;11.37;80.08;101445.63;5056394;28;20104;-61
2023/01/04 08:54:48;;;;;;;0.30;0.30;;;;;;;11.38;79.85;101446.50;5060606;28;20031;-61
2023/01/04 08:57:15;;;;;;;0.20;0.20;;;;;;;11.45;79.62;101437.91;5054203;28;20106;-61
2023/01/04 08:59:41;;;;;;;0.20;0.20;;;;;;;11.52;79.58;101439.59;5055832;28;20049;-60
2023/01/04 09:02:26;;;;;;;0.30;0.30;;;;;;;11.61;79.05;101429.22;5057731;28;20040;-61
2023/01/04 09:04:58;;;;;;;0.32;0.32;;;;;;;11.70;78.86;101411.09;5053838;28;20040;-61
2023/01/04 09:07:24;;;;;;;0.43;0.35;;;;;;;11.72;79.13;101415.38;5052852;28;20028;-61
2023/01/04 09:09:49;;;;;;;0.35;0.30;;;;;;;11.80;78.19;101415.38;5057323;28;20028;-60
2023/01/04 09:12:15;;;;;;;0.95;0.25;;;;;;;11.83;78.29;101425.72;5057949;28;20524;-61
2023/01/04 09:14:40;;;;;;;0.30;0.30;;;;;;;11.85;78.47;101417.09;5056742;28;20418;-61
2023/01/04 09:17:06;;;;;;;0.32;0.30;;;;;;;11.91;78.18;101423.97;5054415;28;20139;-61
2023/01/04 09:19:31;;;;;;;0.40;0.30;;;;;;;11.96;77.71;101414.44;5059327;28;20033;-61
2023/01/04 09:21:57;;;;;;;0.40;0.40;;;;;;;12.00;77.71;101421.34;5058518;28;20390;-61
2023/01/04 09:24:22;;;;;;;1.50;0.38;;;;;;;12.09;77.07;101420.44;5055544;28;20037;-61
2023/01/04 09:26:48;;;;;;;0.68;0.30;;;;;;;12.16;76.39;101412.66;5057125;28;20041;-61
2023/01/04 09:29:13;;;;;;;0.35;0.30;;;;;;;12.22;77.12;101427.31;5058194;28;20048;-61
2023/01/04 09:31:38;;;;;;;0.85;0.20;;;;;;;12.24;77.06;101436.81;5058557;28;20099;-61
2023/01/04 09:34:04;;;;;;;0.57;0.30;;;;;;;12.28;76.94;101432.47;5052506;28;20076;-62
2023/01/04 09:36:29;;;;;;;0.68;0.40;;;;;;;12.32;76.66;101434.16;5051040;28;20098;-61
2023/01/04 09:38:55;;;;;;;0.20;0.20;;;;;;;12.39;76.00;101425.50;5055029;28;20560;-61
2023/01/04 09:41:26;;;;;;;0.30;0.30;;;;;;;12.44;75.72;101429.78;5056822;28;20043;-61
2023/01/04 09:44:22;;;;;;;0.80;0.20;;;;;;;12.48;75.45;101422.00;5055810;28;20098;-61
2023/01/04 09:47:00;;;;;;;0.28;0.28;;;;;;;12.50;75.43;101428.88;5037703;28;20140;-61
2023/01/04 09:49:43;;;;;;;2.00;0.40;;;;;;;12.53;75.32;101413.31;5059460;28;20808;-61
2023/01/04 09:52:08;;;;;;;0.30;0.30;;;;;;;12.59;75.26;101418.47;5055385;28;20018;-60
2023/01/04 09:54:56;;;;;;;2.80;0.40;;;;;;;12.62;74.83;101410.66;5059076;28;20487;-60
2023/01/04 09:57:32;;;;;;;0.25;0.25;;;;;;;12.63;75.02;101404.63;5043008;28;20535;-60
2023/01/04 10:00:23;;;;;;;2.00;0.40;;;;;;;12.66;74.66;101409.78;5056595;28;20159;-61
2023/01/04 10:03:03;;;;;;;0.88;0.30;;;;;;;12.68;74.77;101408.03;5049925;28;20098;-60
2023/01/04 10:05:31;;;;;;;0.75;0.20;;;;;;;12.66;74.75;101406.31;5045370;28;20816;-60
2023/01/04 10:07:57;;;;;;;1.20;0.40;;;;;;;12.65;74.54;101402.84;5055149;28;20036;-61
2023/01/04 10:11:07;;;;;;;0.93;0.30;;;;;;;12.68;74.42;101408.03;5056074;28;20063;-61
2023/01/04 10:14:11;;;;;;;0.35;0.30;;;;;;;12.70;74.78;101405.44;5049917;28;20940;-60
2023/01/04 10:17:15;;;;;;;0.55;0.30;;;;;;;12.67;74.93;101406.28;5007988;28;20044;-64
2023/01/04 10:20:22;;;;;;;0.38;0.30;;;;;;;12.66;74.76;101402.00;5048772;28;20051;-60
2023/01/04 10:23:09;;;;;;;1.50;0.30;;;;;;;12.70;74.83;101390.72;5054534;28;20045;-61
2023/01/04 10:26:00;;;;;;;0.65;0.30;;;;;;;12.75;74.44;101394.16;5054445;28;20378;-60
2023/01/04 10:28:50;;;;;;;0.35;0.32;;;;;;;12.81;74.53;101395.84;5050626;28;20064;-60
2023/01/04 10:31:26;;;;;;;1.23;0.32;;;;;;;12.84;73.94;101390.63;5050251;28;20031;-60
2023/01/04 10:34:13;;;;;;;2.00;0.30;;;;;;;12.89;73.95;101388.84;5055742;28;20033;-60
2023/01/04 10:36:39;;;;;;;0.30;0.20;;;;;;;12.93;73.63;101369.81;5037029;28;20132;-60
2023/01/04 10:39:15;;;;;;;0.93;0.30;;;;;;;12.91;74.03;101381.94;5034293;28;20127;-60
2023/01/04 10:41:55;;;;;;;1.73;0.30;;;;;;;12.91;74.02;101387.97;5045143;28;20040;-60
2023/01/04 10:44:23;;;;;;;2.15;0.70;;;;;;;12.88;73.77;101367.22;5042697;28;20656;-61
2023/01/04 10:47:10;;;;;;;1.90;0.50;;;;;;;12.86;74.11;101361.19;5034968;28;20048;-61
2023/01/04 10:49:35;;;;;;;0.80;0.40;;;;;;;12.81;74.72;101360.38;5036507;28;20144;-60
2023/01/04 10:52:10;;;;;;;1.77;0.40;;;;;;;12.77;75.58;101363.88;5035151;28;20650;-61
2023/01/04 10:54:43;;;;;;;0.65;0.20;;;;;;;12.61;76.89;101383.03;5036856;28;20052;-60
2023/01/04 10:57:17;;;;;;;1.55;0.50;;;;;;;12.48;78.15;101367.53;5033300;28;20596;-60
2023/01/04 10:59:45;;;;;;;0.40;0.30;;;;;;;12.35;78.54;101362.44;5047765;28;20033;-58
2023/01/04 11:02:40;;;;;;;0.30;0.30;;;;;;;12.31;78.68;101363.34;5042002;28;20061;-58
2023/01/04 11:05:20;;;;;;;2.97;0.40;;;;;;;12.34;78.15;101358.13;5031454;28;20039;-58
2023/01/04 11:07:54;;;;;;;0.32;0.30;;;;;;;12.39;77.75;101347.72;5043597;28;20410;-58
2023/01/04 11:10:46;;;;;;;2.63;0.50;;;;;;;12.44;77.34;101339.03;5033379;28;20033;-58
2023/01/04 11:13:12;;;;;;;0.85;0.47;;;;;;;12.46;77.25;101336.44;5049579;28;20048;-58
2023/01/04 11:15:37;;;;;;;0.50;0.40;;;;;;;12.50;77.07;101319.97;5035338;28;20036;-58
2023/01/04 11:18:06;;;;;;;0.50;0.40;;;;;;;12.53;77.17;101316.50;5034108;28;20041;-59
2023/01/04 11:20:32;;;;;;;0.22;0.22;;;;;;;12.56;76.69;101321.66;5037419;28;20311;-58
2023/01/04 11:23:18;;;;;;;0.30;0.30;;;;;;;12.57;76.81;101313.88;5031799;28;20576;-58
2023/01/04 11:25:56;;;;;;;1.60;0.35;;;;;;;12.57;77.27;101323.41;5036527;28;20055;-58
2023/01/04 11:28:30;;;;;;;0.32;0.30;;;;;;;12.50;78.11;101321.69;5038795;28;20032;-58
2023/01/04 11:31:10;;;;;;;0.20;0.20;;;;;;;12.45;78.32;101324.34;5036986;28;20036;-57
2023/01/04 11:33:59;;;;;;;0.82;0.30;;;;;;;12.46;77.91;101313.94;5031916;28;20072;-58
2023/01/04 11:36:30;;;;;;;0.57;0.30;;;;;;;12.50;78.00;101303.56;5029607;28;20040;-58
2023/01/04 11:38:57;;;;;;;0.45;0.22;;;;;;;12.55;78.04;101299.22;5036348;28;20045;-58
2023/01/04 11:41:24;;;;;;;3.90;0.35;;;;;;;12.60;77.70;101297.44;5032501;28;20064;-58
2023/01/04 11:44:05;;;;;;;0.20;0.20;;;;;;;12.65;77.24;101293.94;5036670;28;20044;-58
2023/01/04 11:46:32;;;;;;;0.93;0.20;;;;;;;12.71;77.32;101293.00;5038241;28;20029;-59
2023/01/04 11:48:58;;;;;;;0.57;0.28;;;;;;;12.74;76.85;101280.00;5036344;28;20037;-58
2023/01/04 11:51:27;;;;;;;1.15;0.30;;;;;;;12.76;77.08;101276.53;5034505;28;20488;-58
2023/01/04 11:54:03;;;;;;;0.50;0.40;;;;;;;12.79;76.78;101267.88;5033029;28;20056;-59
2023/01/04 11:56:31;;;;;;;2.05;0.45;;;;;;;12.80;76.87;101270.44;5030811;28;20514;-58
2023/01/04 11:59:06;;;;;;;0.93;0.45;;;;;;;12.82;77.00;101266.09;5037851;28;20036;-58
2023/01/04 12:01:36;;;;;;;1.80;0.50;;;;;;;12.85;76.87;101254.84;5031921;28;20044;-59
2023/01/04 12:04:08;;;;;;;0.63;0.40;;;;;;;12.89;76.73;101256.53;5035223;28;20029;-58
2023/01/04 12:06:50;;;;;;;1.52;0.40;;;;;;;12.90;76.49;101250.47;5034113;28;20084;-58
2023/01/04 12:09:17;;;;;;;0.20;0.20;;;;;;;12.95;76.01;101246.09;5035351;28;20097;-58
2023/01/04 12:11:50;;;;;;;0.57;0.35;;;;;;;12.97;76.64;101255.56;5035531;28;20090;-58
2023/01/04 12:14:25;;;;;;;0.30;0.30;;;;;;;12.99;76.39;101238.31;5056861;28;20131;-58
2023/01/04 12:17:11;;;;;;;2.47;0.30;;;;;;;13.01;75.83;101243.47;5055737;28;20060;-58
2023/01/04 12:19:40;;;;;;;0.20;0.20;;;;;;;13.01;76.02;101243.47;5050245;28;20037;-58
2023/01/04 12:22:22;;;;;;;0.25;0.25;;;;;;;13.02;76.25;101244.31;5037988;28;20029;-58
2023/01/04 12:24:48;;;;;;;0.20;0.20;;;;;;;12.98;76.72;101244.31;5037090;28;20053;-58